• Join FlightAware (Why Join?)
  • Login
  • US Flag 
 
06:40AM EST


 

Airport Tracker/Info


-or-


 

Live Flight TrackerFlight Track Log ✈ PE6 ✈ 04-May-2012 ✈ YWLM / NTL - YSSY / SYD

Flight Track Log - Related Links

Times and Time Zones

All times are in EDT time to prevent confusion due to time zone crossing. See the PE6 flight status page for this flight to view local times or setup timezone preferences in your user account.

Time Position Orientation Groundspeed Altitude Reporting Facility
EDT Latitude Longitude Course Direction KTS MPH feet Rate Location/Type
04:07PM -32.8312 151.7579 349° North 12,000  Level Aus ATC (Calculated)
04:08PM -32.8312 151.7579 349° North 12,000 -3,720 Level Aus ATC (Calculated)
04:09PM -32.8202 151.7553 51° Northeast 172 198 3,600 -4,260 Descending Aus ATC (RADAR)
04:10PM -32.7820 151.8113 228° Southwest 133 153 1,300 -60 Descending Aus ATC (RADAR)
04:11PM -32.8205 151.7610 226° Southwest 164 189 3,500 2,040 Climbing Aus ATC (RADAR)
04:12PM -32.8584 151.7148 246° West 171 197 5,600 2,160 Climbing Aus ATC (RADAR)
04:13PM -32.8847 151.6447 242° Southwest 172 198 8,100 2,160 Climbing Aus ATC (RADAR)
04:15PM -32.9479 151.5038 243° Southwest 182 209 12,100 1,320 Climbing Aus ATC (RADAR)
04:16PM -32.9917 151.4018 239° Southwest 237 273 12,200  Climbing Aus ATC (RADAR)
04:18PM -33.0732 151.2390 183° South 247 284 12,200  Level Aus ATC (RADAR)
04:19PM -33.2542 151.2276 184° South 259 298 12,200  Level Aus ATC (RADAR)
04:20PM -33.3316 151.2212 North 259 298 12,200  Level Aus ATC (RADAR)
04:21PM -33.2957 151.2241 184° South 257 296 12,200  Level Aus ATC (RADAR)
04:22PM -33.3550 151.2197 184° South 257 296 12,200 -420 Level Aus ATC (RADAR)
04:23PM -33.4709 151.2090 183° South 270 311 11,400 -1,380 Descending Aus ATC (RADAR)
04:24PM -33.5983 151.1997 182° South 268 308 9,300 -2,040 Descending Aus ATC (RADAR)
04:25PM -33.7340 151.1949 164° South 257 296 7,000 -1,440 Descending Aus ATC (RADAR)
04:27PM -33.8205 151.2249 162° South 251 289 6,100 -420 Descending Aus ATC (RADAR)
04:28PM -33.8879 151.2520 161° South 251 289 6,100  Level Aus ATC (RADAR)
04:29PM -33.9595 151.2818 161° South 250 288 6,100 -480 Level Aus ATC (RADAR)
04:31PM -34.0958 151.3372 176° South 245 282 4,700 -900 Descending Aus ATC (RADAR)
04:32PM -34.1629 151.3432 300° West 234 269 3,300 -1,080 Descending Aus ATC (RADAR)
04:33PM -34.1347 151.2843 318° Northwest 199 229 2,400 -540 Descending Aus ATC (RADAR)
04:34PM -34.0917 151.2369 339° North 207 238 2,200 -480 Descending Aus ATC (RADAR)
04:35PM -34.0373 151.2117 347° North 187 215 1,400 -720 Descending Aus ATC (RADAR)
04:36PM -33.9963 151.2005 348° North 144 166 700 -660 Descending Aus ATC (RADAR)
04:37PM -33.9620 151.1915 348° North 106 122 100 -600 Descending Aus ATC (RADAR)